KHIE/HIE METAR and TAF weather

Enter ICAO airport designator
Station Type Date Time Source
KHIE METAR 2019/04/20 18:20 UTC NOAA

KHIE 201820Z AUTO 33003KT 3SM -RA BR SCT040 OVC060 17/14 A2987 RMK AO2 P0018 T01670144


Station Type Date Time Source
KHIE Decoded METAR 2019/04/20 18:20 UTC NOAA

MT WASHINGTON REGIONAL AIRPORT , NH, United States (KHIE) 44-22N 71-33W 318M
Apr 20, 2019 - 02:20 PM EDT / 2019.04.20 1820 UTC
Wind: from the NNW (330 degrees) at 3 MPH (3 KT):0
Visibility: 3 mile(s):0
Sky conditions: overcast
Weather: light rain; mist
Precipitation last hour: 0.18 inches
Temperature: 62.1 F (16.7 C)
Dew Point: 57.9 F (14.4 C)
Relative Humidity: 86%
Pressure (altimeter): 29.87 in. Hg (1011 hPa)
ob: KHIE 201820Z AUTO 33003KT 3SM -RA BR SCT040 OVC060 17/14 A2987 RMK AO2 P0018 T01670144
cycle: 18

Station Type Date Time Source
KHIE TAF 2019/04/20 18:22 UTC NOAA

TAF KHIE 201720Z 2018/2118 19009KT 3SM -SHRA OVC040 WS020/21035KT
FM202100 15009KT 4SM -SHRA OVC025 WS020/21035KT
FM210000 13009KT 1SM -SHRA BR OVC020
FM210700 21010KT 1SM BR OVC015
TEMPO 2109/2113 3SM BR OVC025
FM211300 22007KT P6SM OVC035

Example: see airport list